createdAt,value
2018-02-16T00:00:49.000Z,100568
2018-02-16T00:02:49.000Z,100577
2018-02-16T00:04:34.000Z,100579
2018-02-16T00:05:49.000Z,100581
2018-02-16T00:07:49.000Z,100580
2018-02-16T00:08:49.000Z,100584
2018-02-16T00:10:49.000Z,100585
2018-02-16T00:12:34.000Z,100591
2018-02-16T00:13:34.000Z,100593
2018-02-16T00:14:49.000Z,100594
2018-02-16T00:16:49.000Z,100597
2018-02-16T00:17:49.000Z,100600
2018-02-16T00:18:49.000Z,100596
2018-02-16T00:20:34.000Z,100593
2018-02-16T00:21:49.000Z,100596
2018-02-16T00:22:49.000Z,100597
2018-02-16T00:23:49.000Z,100599
2018-02-16T00:24:49.000Z,100600
2018-02-16T00:26:34.000Z,100604
2018-02-16T00:27:49.000Z,100600
2018-02-16T00:28:49.000Z,100607
2018-02-16T00:30:49.000Z,100608
2018-02-16T00:32:49.000Z,100612
2018-02-16T00:33:49.000Z,100614
2018-02-16T00:35:49.000Z,100616
2018-02-16T00:37:34.000Z,100617
2018-02-16T00:38:49.000Z,100615
2018-02-16T00:40:49.000Z,100622
2018-02-16T00:41:49.000Z,100621
2018-02-16T00:42:49.000Z,100622
2018-02-16T00:44:49.000Z,100618
2018-02-16T00:46:49.000Z,100620
2018-02-16T00:48:49.000Z,100622
2018-02-16T00:50:49.000Z,100625
2018-02-16T00:51:49.000Z,100622
2018-02-16T00:53:49.000Z,100631
2018-02-16T00:55:49.000Z,100633
2018-02-16T00:57:49.000Z,100637
2018-02-16T00:59:49.000Z,100632
2018-02-16T01:00:49.000Z,100636
2018-02-16T01:02:49.000Z,100642
2018-02-16T01:03:49.000Z,100642
2018-02-16T01:05:49.000Z,100643
2018-02-16T01:07:49.000Z,100645
2018-02-16T01:09:34.000Z,100642
2018-02-16T01:10:49.000Z,100646
2018-02-16T01:11:49.000Z,100648
2018-02-16T01:13:19.000Z,100646
2018-02-16T01:14:49.000Z,100647
2018-02-16T01:16:49.000Z,100651
2018-02-16T01:18:49.000Z,100652
2018-02-16T01:20:34.000Z,100652
2018-02-16T01:21:49.000Z,100655
2018-02-16T01:23:49.000Z,100656
2018-02-16T01:24:49.000Z,100658
2018-02-16T01:26:49.000Z,100657
2018-02-16T01:28:49.000Z,100665
2018-02-16T01:30:49.000Z,100666
2018-02-16T01:31:49.000Z,100669
2018-02-16T01:32:49.000Z,100670
2018-02-16T01:34:34.000Z,100669
2018-02-16T01:35:49.000Z,100664
2018-02-16T01:36:49.000Z,100673
2018-02-16T01:37:49.000Z,100670
2018-02-16T01:38:49.000Z,100671
2018-02-16T01:40:49.000Z,100666
2018-02-16T01:41:49.000Z,100667
2018-02-16T01:43:34.000Z,100666
2018-02-16T01:44:50.000Z,100671
2018-02-16T01:48:50.000Z,100670
2018-02-16T01:50:36.000Z,100671
2018-02-16T01:51:36.000Z,100672
2018-02-16T01:53:36.000Z,100670
2018-02-16T01:55:36.000Z,100671
2018-02-16T01:57:36.000Z,100675
2018-02-16T01:59:20.000Z,100672
2018-02-16T02:00:21.000Z,100673
2018-02-16T02:01:36.000Z,100680
2018-02-16T02:03:36.000Z,100678
2018-02-16T02:04:36.000Z,100685
2018-02-16T02:06:36.000Z,100686
2018-02-16T02:07:36.000Z,100691
2018-02-16T02:09:20.000Z,100692
2018-02-16T02:10:36.000Z,100695
2018-02-16T02:11:36.000Z,100696
2018-02-16T02:13:36.000Z,100703
2018-02-16T02:14:36.000Z,100701
2018-02-16T02:16:36.000Z,100700
2018-02-16T02:18:36.000Z,100707
2018-02-16T02:20:36.000Z,100711
2018-02-16T02:22:36.000Z,100710
2018-02-16T02:24:20.000Z,100716
2018-02-16T02:25:36.000Z,100720
2018-02-16T02:26:36.000Z,100721
2018-02-16T02:28:36.000Z,100722
2018-02-16T02:30:36.000Z,100727
2018-02-16T02:31:36.000Z,100720
2018-02-16T02:33:36.000Z,100725
2018-02-16T02:35:36.000Z,100732
2018-02-16T02:37:36.000Z,100732
2018-02-16T02:39:36.000Z,100735
2018-02-16T02:41:36.000Z,100735
2018-02-16T02:42:36.000Z,100738
2018-02-16T02:44:36.000Z,100736
2018-02-16T02:46:36.000Z,100741
2018-02-16T02:48:36.000Z,100737
2018-02-16T02:50:36.000Z,100744
2018-02-16T02:52:36.000Z,100748
2018-02-16T02:54:36.000Z,100749
2018-02-16T02:55:36.000Z,100752
2018-02-16T02:57:36.000Z,100748
2018-02-16T02:59:36.000Z,100754
2018-02-16T03:01:36.000Z,100754
2018-02-16T03:03:21.000Z,100755
2018-02-16T03:04:36.000Z,100758
2018-02-16T03:06:21.000Z,100762
2018-02-16T03:07:21.000Z,100763
2018-02-16T03:08:36.000Z,100758
2018-02-16T03:10:36.000Z,100767
2018-02-16T03:11:36.000Z,100765
2018-02-16T03:13:21.000Z,100765
2018-02-16T03:14:36.000Z,100769
2018-02-16T03:16:36.000Z,100776
2018-02-16T03:17:36.000Z,100769
2018-02-16T03:19:36.000Z,100781
2018-02-16T03:20:36.000Z,100776
2018-02-16T03:22:21.000Z,100777
2018-02-16T03:23:36.000Z,100783
2018-02-16T03:24:36.000Z,100784
2018-02-16T03:26:21.000Z,100783
2018-02-16T03:27:36.000Z,100787
2018-02-16T03:28:36.000Z,100782
2018-02-16T03:30:36.000Z,100786
2018-02-16T03:31:36.000Z,100786
2018-02-16T03:33:36.000Z,100794
2018-02-16T03:37:22.000Z,100793
2018-02-16T03:38:22.000Z,100795
2018-02-16T03:40:07.000Z,100793
2018-02-16T03:41:22.000Z,100795
2018-02-16T03:43:22.000Z,100795
2018-02-16T03:45:22.000Z,100797
2018-02-16T03:46:22.000Z,100800
2018-02-16T03:48:22.000Z,100802
2018-02-16T03:49:22.000Z,100798
2018-02-16T03:51:22.000Z,100808
2018-02-16T03:53:22.000Z,100807
2018-02-16T03:54:22.000Z,100804
2018-02-16T03:56:22.000Z,100813
2018-02-16T03:58:06.000Z,100812
2018-02-16T03:59:22.000Z,100814
2018-02-16T04:01:22.000Z,100811
2018-02-16T04:02:22.000Z,100812
2018-02-16T04:04:22.000Z,100820
2018-02-16T04:06:22.000Z,100822
2018-02-16T04:08:22.000Z,100819
2018-02-16T04:10:22.000Z,100820
2018-02-16T04:12:22.000Z,100824
2018-02-16T04:13:22.000Z,100820
2018-02-16T04:15:22.000Z,100828
2018-02-16T04:16:22.000Z,100828
2018-02-16T04:18:06.000Z,100828
2018-02-16T04:19:22.000Z,100827
2018-02-16T04:20:22.000Z,100828
2018-02-16T04:21:22.000Z,100826
2018-02-16T04:22:22.000Z,100829
2018-02-16T04:24:22.000Z,100836
2018-02-16T04:26:22.000Z,100829
2018-02-16T04:28:22.000Z,100840
2018-02-16T04:29:22.000Z,100836
2018-02-16T04:31:22.000Z,100837
2018-02-16T04:32:22.000Z,100835
2018-02-16T04:34:22.000Z,100837
2018-02-16T04:36:22.000Z,100841
2018-02-16T04:38:22.000Z,100850
2018-02-16T04:39:22.000Z,100849
2018-02-16T04:41:22.000Z,100853
2018-02-16T04:43:06.000Z,100852
2018-02-16T04:44:22.000Z,100853
2018-02-16T04:45:22.000Z,100857
2018-02-16T04:47:06.000Z,100856
2018-02-16T04:48:22.000Z,100853
2018-02-16T04:50:06.000Z,100856
2018-02-16T04:51:22.000Z,100859
2018-02-16T04:52:22.000Z,100858
2018-02-16T04:54:06.000Z,100860
2018-02-16T04:55:21.000Z,100861
2018-02-16T04:57:06.000Z,100860
2018-02-16T04:58:21.000Z,100859
2018-02-16T04:59:51.000Z,100867
2018-02-16T05:01:21.000Z,100870
2018-02-16T05:02:21.000Z,100866
2018-02-16T05:04:21.000Z,100868
2018-02-16T05:06:21.000Z,100871
2018-02-16T05:07:21.000Z,100884
2018-02-16T05:09:21.000Z,100874
2018-02-16T05:10:21.000Z,100893
2018-02-16T05:11:21.000Z,100871
2018-02-16T05:13:21.000Z,100874
2018-02-16T05:15:21.000Z,100875
2018-02-16T05:17:21.000Z,100883
2018-02-16T05:18:21.000Z,100880
2018-02-16T05:20:21.000Z,100883
2018-02-16T05:21:21.000Z,100888
2018-02-16T05:23:21.000Z,100896
2018-02-16T05:24:21.000Z,100894
2018-02-16T05:26:21.000Z,100893
2018-02-16T05:28:21.000Z,100901
2018-02-16T05:29:21.000Z,100902
2018-02-16T05:30:21.000Z,100897
2018-02-16T05:32:21.000Z,100894
2018-02-16T05:33:21.000Z,100902
2018-02-16T05:35:21.000Z,100899
2018-02-16T05:36:21.000Z,100893
2018-02-16T05:38:06.000Z,100900
2018-02-16T05:39:21.000Z,100899
2018-02-16T05:40:21.000Z,100906
2018-02-16T05:42:06.000Z,100902
2018-02-16T05:43:21.000Z,100906
2018-02-16T05:45:21.000Z,100903
2018-02-16T05:47:21.000Z,100907
2018-02-16T05:48:21.000Z,100911
2018-02-16T05:50:21.000Z,100925
2018-02-16T05:52:21.000Z,100925
2018-02-16T05:54:21.000Z,100929
2018-02-16T05:55:21.000Z,100933
2018-02-16T05:56:22.000Z,100933
2018-02-16T05:58:21.000Z,100940
2018-02-16T06:00:21.000Z,100940
2018-02-16T06:01:21.000Z,100944
2018-02-16T06:03:21.000Z,100951
2018-02-16T06:04:21.000Z,100950
2018-02-16T06:05:21.000Z,100952
2018-02-16T06:07:21.000Z,100952
2018-02-16T06:08:21.000Z,100952
2018-02-16T06:10:06.000Z,100950
2018-02-16T06:11:21.000Z,100949
2018-02-16T06:13:21.000Z,100960
2018-02-16T06:15:21.000Z,100952
2018-02-16T06:17:21.000Z,100960
2018-02-16T06:19:21.000Z,100965
2018-02-16T06:21:06.000Z,100974
2018-02-16T06:22:21.000Z,100970
2018-02-16T06:23:21.000Z,100970
2018-02-16T06:25:21.000Z,100970
2018-02-16T06:26:21.000Z,100984
2018-02-16T06:27:21.000Z,100976
2018-02-16T06:29:21.000Z,100977
2018-02-16T06:30:51.000Z,100976
2018-02-16T06:32:21.000Z,100980
2018-02-16T06:34:21.000Z,100977
2018-02-16T06:35:21.000Z,100981
2018-02-16T06:37:21.000Z,100981
2018-02-16T06:38:21.000Z,100975
2018-02-16T06:40:21.000Z,100978
2018-02-16T06:42:21.000Z,100984
2018-02-16T06:44:21.000Z,100992
2018-02-16T06:45:21.000Z,100984
2018-02-16T06:47:21.000Z,100991
2018-02-16T06:48:21.000Z,100990
2018-02-16T06:49:21.000Z,100989
2018-02-16T06:51:06.000Z,100992
2018-02-16T06:52:21.000Z,100989
2018-02-16T06:54:06.000Z,100997
2018-02-16T06:55:21.000Z,100999
2018-02-16T06:56:21.000Z,101000
2018-02-16T06:58:21.000Z,101005
2018-02-16T07:00:06.000Z,101011
2018-02-16T07:01:06.000Z,101005
2018-02-16T07:02:22.000Z,101004
2018-02-16T07:04:06.000Z,101005
2018-02-16T07:05:22.000Z,101017
2018-02-16T07:06:22.000Z,101017
2018-02-16T07:07:22.000Z,101019
2018-02-16T07:09:22.000Z,101022
2018-02-16T07:10:22.000Z,101022
2018-02-16T07:12:22.000Z,101028
2018-02-16T07:14:22.000Z,101025
2018-02-16T07:16:22.000Z,101026
2018-02-16T07:18:22.000Z,101030
2018-02-16T07:19:22.000Z,101027
2018-02-16T07:21:22.000Z,101033
2018-02-16T07:23:22.000Z,101031
2018-02-16T07:24:22.000Z,101024
2018-02-16T07:26:22.000Z,101033
2018-02-16T07:28:22.000Z,101037
2018-02-16T07:29:22.000Z,101035
2018-02-16T07:31:22.000Z,101038
2018-02-16T07:32:22.000Z,101042
2018-02-16T07:34:22.000Z,101044
2018-02-16T07:36:22.000Z,101052
2018-02-16T07:38:06.000Z,101054
2018-02-16T07:39:06.000Z,101051
2018-02-16T07:40:22.000Z,101052
2018-02-16T07:42:22.000Z,101057
2018-02-16T07:44:06.000Z,101064
2018-02-16T07:45:22.000Z,101068
2018-02-16T07:47:22.000Z,101076
2018-02-16T07:49:22.000Z,101071
2018-02-16T07:50:22.000Z,101080
2018-02-16T07:52:22.000Z,101085
2018-02-16T07:53:22.000Z,101080
2018-02-16T07:55:22.000Z,101088
2018-02-16T07:57:22.000Z,101093
2018-02-16T07:59:22.000Z,101082
2018-02-16T08:00:22.000Z,101087
2018-02-16T08:02:06.000Z,101106
2018-02-16T08:03:22.000Z,101105
2018-02-16T08:05:22.000Z,101100
2018-02-16T08:07:22.000Z,101101
2018-02-16T08:09:22.000Z,101106
2018-02-16T08:11:22.000Z,101120
2018-02-16T08:13:22.000Z,101120
2018-02-16T08:15:22.000Z,101117
2018-02-16T08:17:22.000Z,101126
2018-02-16T08:19:22.000Z,101132
2018-02-16T08:21:22.000Z,101130
2018-02-16T08:22:22.000Z,101143
2018-02-16T08:24:07.000Z,101143
2018-02-16T08:25:22.000Z,101144
2018-02-16T08:26:22.000Z,101150
2018-02-16T08:28:22.000Z,101145
2018-02-16T08:30:07.000Z,101154
2018-02-16T08:31:22.000Z,101151
2018-02-16T08:33:22.000Z,101150
2018-02-16T08:34:22.000Z,101151
2018-02-16T08:36:22.000Z,101141
2018-02-16T08:37:22.000Z,101151
2018-02-16T08:38:22.000Z,101146
2018-02-16T08:40:22.000Z,101149
2018-02-16T08:41:22.000Z,101151
2018-02-16T08:42:22.000Z,101154
2018-02-16T08:44:22.000Z,101152
2018-02-16T08:45:52.000Z,101151
2018-02-16T08:47:22.000Z,101156
2018-02-16T08:49:22.000Z,101155
2018-02-16T08:51:22.000Z,101157
2018-02-16T08:53:22.000Z,101159
2018-02-16T08:55:22.000Z,101169
2018-02-16T08:56:22.000Z,101166
2018-02-16T08:58:22.000Z,101166
2018-02-16T09:00:22.000Z,101165
2018-02-16T09:01:22.000Z,101171
2018-02-16T09:03:22.000Z,101172
2018-02-16T09:04:22.000Z,101177
2018-02-16T09:06:07.000Z,101175
2018-02-16T09:07:22.000Z,101183
2018-02-16T09:08:22.000Z,101194
2018-02-16T09:09:22.000Z,101182
2018-02-16T09:11:22.000Z,101184
2018-02-16T09:12:22.000Z,101182
2018-02-16T09:14:22.000Z,101178
2018-02-16T09:16:22.000Z,101178
2018-02-16T09:17:22.000Z,101181
2018-02-16T09:19:22.000Z,101185
2018-02-16T09:21:22.000Z,101192
2018-02-16T09:23:22.000Z,101187
2018-02-16T09:25:22.000Z,101181
2018-02-16T09:26:22.000Z,101191
2018-02-16T09:27:22.000Z,101191
2018-02-16T09:29:22.000Z,101188
2018-02-16T09:30:52.000Z,101189
2018-02-16T09:32:07.000Z,101188
2018-02-16T09:34:22.000Z,101200
2018-02-16T09:36:22.000Z,101202
2018-02-16T09:38:22.000Z,101198
2018-02-16T09:40:22.000Z,101221
2018-02-16T09:42:22.000Z,101206
2018-02-16T09:43:22.000Z,101199
2018-02-16T09:44:22.000Z,101207
2018-02-16T09:46:22.000Z,101205
2018-02-16T09:48:22.000Z,101207
2018-02-16T09:50:22.000Z,101203
2018-02-16T09:52:22.000Z,101207
2018-02-16T09:54:22.000Z,101212
2018-02-16T09:56:22.000Z,101222
2018-02-16T09:57:22.000Z,101224
2018-02-16T09:59:07.000Z,101221
2018-02-16T10:00:07.000Z,101222
2018-02-16T10:01:22.000Z,101237
2018-02-16T10:03:22.000Z,101224
2018-02-16T10:04:22.000Z,101224
2018-02-16T10:06:22.000Z,101228
2018-02-16T10:08:07.000Z,101236
2018-02-16T10:09:22.000Z,101237
2018-02-16T10:10:22.000Z,101232
2018-02-16T10:11:22.000Z,101240
2018-02-16T10:13:22.000Z,101241
2018-02-16T10:14:22.000Z,101243
2018-02-16T10:16:22.000Z,101243
2018-02-16T10:18:22.000Z,101254
2018-02-16T10:20:22.000Z,101257
2018-02-16T10:21:51.000Z,101252
2018-02-16T10:23:22.000Z,101254
2018-02-16T10:25:22.000Z,101260
2018-02-16T10:27:22.000Z,101263
2018-02-16T10:28:22.000Z,101265
2018-02-16T10:30:22.000Z,101268
2018-02-16T10:32:22.000Z,101268
2018-02-16T10:34:22.000Z,101270
2018-02-16T10:36:22.000Z,101272
2018-02-16T10:37:22.000Z,101269
2018-02-16T10:39:07.000Z,101269
2018-02-16T10:40:22.000Z,101271
2018-02-16T10:41:22.000Z,101273
2018-02-16T10:43:22.000Z,101273
2018-02-16T10:44:22.000Z,101274
2018-02-16T10:45:22.000Z,101271
2018-02-16T10:47:22.000Z,101277
2018-02-16T10:48:22.000Z,101281
2018-02-16T10:49:22.000Z,101273
2018-02-16T10:51:22.000Z,101279
2018-02-16T10:53:07.000Z,101280
2018-02-16T10:54:22.000Z,101277
2018-02-16T10:56:22.000Z,101280
2018-02-16T10:58:22.000Z,101289
2018-02-16T11:00:22.000Z,101281
2018-02-16T11:02:07.000Z,101289
2018-02-16T11:03:22.000Z,101291
2018-02-16T11:05:07.000Z,101295
2018-02-16T11:06:22.000Z,101290
2018-02-16T11:08:22.000Z,101291
2018-02-16T11:09:22.000Z,101293
2018-02-16T11:11:22.000Z,101290
2018-02-16T11:13:22.000Z,101294
2018-02-16T11:14:22.000Z,101297
2018-02-16T11:16:07.000Z,101299
2018-02-16T11:17:22.000Z,101290
2018-02-16T11:19:22.000Z,101292
2018-02-16T11:21:22.000Z,101299
2018-02-16T11:22:51.000Z,101289
2018-02-16T11:24:22.000Z,101287
2018-02-16T11:26:07.000Z,101296
2018-02-16T11:27:22.000Z,101293
2018-02-16T11:28:22.000Z,101297
2018-02-16T11:30:22.000Z,101290
2018-02-16T11:31:51.000Z,101293
2018-02-16T11:33:22.000Z,101297
2018-02-16T11:35:22.000Z,101289
2018-02-16T11:37:07.000Z,101300
2018-02-16T11:38:22.000Z,101297
2018-02-16T11:40:22.000Z,101302
2018-02-16T11:42:22.000Z,101311
2018-02-16T11:44:22.000Z,101307
2018-02-16T11:46:22.000Z,101311
2018-02-16T11:47:22.000Z,101312
2018-02-16T11:49:22.000Z,101309
2018-02-16T11:50:22.000Z,101313
2018-02-16T11:51:22.000Z,101309
2018-02-16T11:53:22.000Z,101305
2018-02-16T11:55:22.000Z,101307
2018-02-16T11:57:07.000Z,101256
2018-02-16T11:58:22.000Z,101312
2018-02-16T12:00:22.000Z,101310
2018-02-16T12:02:22.000Z,101307
2018-02-16T12:04:22.000Z,101306
2018-02-16T12:05:22.000Z,101305
2018-02-16T12:06:22.000Z,101304
2018-02-16T12:07:22.000Z,101309
2018-02-16T12:09:07.000Z,101303
2018-02-16T12:10:22.000Z,101300
2018-02-16T12:12:07.000Z,101301
2018-02-16T12:13:22.000Z,101308
2018-02-16T12:15:22.000Z,101299
2018-02-16T12:17:22.000Z,101291
2018-02-16T12:19:22.000Z,101292
2018-02-16T12:21:22.000Z,101301
2018-02-16T12:23:22.000Z,101309
2018-02-16T12:25:22.000Z,101307
2018-02-16T12:26:22.000Z,101295
2018-02-16T12:28:22.000Z,101307
2018-02-16T12:29:22.000Z,101305
2018-02-16T12:30:22.000Z,101306
2018-02-16T12:32:22.000Z,101307
2018-02-16T12:34:22.000Z,101304
2018-02-16T12:36:22.000Z,101301
2018-02-16T12:38:22.000Z,101301
2018-02-16T12:40:22.000Z,101307
2018-02-16T12:42:22.000Z,101302
2018-02-16T12:43:22.000Z,101304
2018-02-16T12:45:22.000Z,101314
2018-02-16T12:47:07.000Z,101314
2018-02-16T12:48:22.000Z,101304
2018-02-16T12:50:22.000Z,101310
2018-02-16T12:52:22.000Z,101315
2018-02-16T12:53:22.000Z,101311
2018-02-16T12:55:07.000Z,101318
2018-02-16T12:56:22.000Z,101314
2018-02-16T12:58:22.000Z,101319
2018-02-16T13:00:22.000Z,101324
2018-02-16T13:01:22.000Z,101318
2018-02-16T13:02:22.000Z,101321
2018-02-16T13:04:22.000Z,101318
2018-02-16T13:06:22.000Z,101307
2018-02-16T13:07:22.000Z,101308
2018-02-16T13:09:22.000Z,101312
2018-02-16T13:11:22.000Z,101302
2018-02-16T13:13:22.000Z,101300
2018-02-16T13:15:22.000Z,101302
2018-02-16T13:17:22.000Z,101304
2018-02-16T13:18:22.000Z,101304
2018-02-16T13:20:22.000Z,101299
2018-02-16T13:21:52.000Z,101306
2018-02-16T13:23:22.000Z,101305
2018-02-16T13:25:22.000Z,101297
2018-02-16T13:26:22.000Z,101302
2018-02-16T13:27:22.000Z,101308
2018-02-16T13:29:22.000Z,101302
2018-02-16T13:30:22.000Z,101301
2018-02-16T13:32:22.000Z,101299
2018-02-16T13:34:07.000Z,101302
2018-02-16T13:35:22.000Z,101295
2018-02-16T13:36:51.000Z,101302
2018-02-16T13:38:22.000Z,101299
2018-02-16T13:39:22.000Z,101300
2018-02-16T13:41:22.000Z,101302
2018-02-16T13:43:22.000Z,101301
2018-02-16T13:45:22.000Z,101304
2018-02-16T13:47:22.000Z,101307
2018-02-16T13:49:22.000Z,101310
2018-02-16T13:50:22.000Z,101307
2018-02-16T13:52:22.000Z,101300
2018-02-16T13:54:22.000Z,101306
2018-02-16T13:55:22.000Z,101307
2018-02-16T13:57:22.000Z,101304
2018-02-16T13:59:22.000Z,101306
2018-02-16T14:01:22.000Z,101306
2018-02-16T14:03:22.000Z,101304
2018-02-16T14:05:22.000Z,101314
2018-02-16T14:06:22.000Z,101313
2018-02-16T14:08:22.000Z,101306
2018-02-16T14:09:22.000Z,101310
2018-02-16T14:10:22.000Z,101310
2018-02-16T14:12:07.000Z,101311
2018-02-16T14:13:22.000Z,101309
2018-02-16T14:15:22.000Z,101307
2018-02-16T14:16:22.000Z,101311
2018-02-16T14:17:22.000Z,101317
2018-02-16T14:19:22.000Z,101318
2018-02-16T14:20:22.000Z,101315
2018-02-16T14:22:22.000Z,101321
2018-02-16T14:23:22.000Z,101313
2018-02-16T14:25:07.000Z,101319
2018-02-16T14:26:22.000Z,101323
2018-02-16T14:28:21.000Z,101324
2018-02-16T14:30:21.000Z,101318
2018-02-16T14:32:21.000Z,101324
2018-02-16T14:34:21.000Z,101326
2018-02-16T14:36:21.000Z,101332
2018-02-16T14:38:21.000Z,101332
2018-02-16T14:40:21.000Z,101325
2018-02-16T14:42:21.000Z,101319
2018-02-16T14:44:21.000Z,101329
2018-02-16T14:46:21.000Z,101321
2018-02-16T14:48:21.000Z,101324
2018-02-16T14:49:21.000Z,101328
2018-02-16T14:51:21.000Z,101335
2018-02-16T14:52:21.000Z,101337
2018-02-16T14:53:21.000Z,101338
2018-02-16T14:55:21.000Z,101337
2018-02-16T14:57:21.000Z,101326
2018-02-16T14:59:21.000Z,101325
2018-02-16T15:00:21.000Z,101328
2018-02-16T15:02:21.000Z,101329
2018-02-16T15:04:21.000Z,101324
2018-02-16T15:06:21.000Z,101321
2018-02-16T15:08:21.000Z,101321
2018-02-16T15:09:21.000Z,101320
2018-02-16T15:11:21.000Z,101315
2018-02-16T15:13:21.000Z,101317
2018-02-16T15:14:51.000Z,101315
2018-02-16T15:16:21.000Z,101308
2018-02-16T15:17:21.000Z,101306
2018-02-16T15:18:21.000Z,101312
2018-02-16T15:19:21.000Z,101313
2018-02-16T15:21:06.000Z,101313
2018-02-16T15:22:21.000Z,101309
2018-02-16T15:24:21.000Z,101313
2018-02-16T15:26:06.000Z,101314
2018-02-16T15:27:21.000Z,101311
2018-02-16T15:29:21.000Z,101311
2018-02-16T15:31:22.000Z,101306
2018-02-16T15:33:22.000Z,101309
2018-02-16T15:35:07.000Z,101307
2018-02-16T15:36:22.000Z,101309
2018-02-16T15:37:22.000Z,101313
2018-02-16T15:38:22.000Z,101316
2018-02-16T15:40:22.000Z,101315
2018-02-16T15:42:22.000Z,101314
2018-02-16T15:44:22.000Z,101316
2018-02-16T15:46:22.000Z,101319
2018-02-16T15:48:22.000Z,101317
2018-02-16T15:50:22.000Z,101315
2018-02-16T15:52:07.000Z,101311
2018-02-16T15:53:22.000Z,101316
2018-02-16T15:55:22.000Z,101318
2018-02-16T15:56:22.000Z,101319
2018-02-16T15:57:22.000Z,101315
2018-02-16T15:59:22.000Z,101321
2018-02-16T16:01:22.000Z,101324
2018-02-16T16:03:22.000Z,101321
2018-02-16T16:05:07.000Z,101327
2018-02-16T16:06:22.000Z,101332
2018-02-16T16:07:22.000Z,101330
2018-02-16T16:09:22.000Z,101333
2018-02-16T16:11:22.000Z,101334
2018-02-16T16:13:22.000Z,101330
2018-02-16T16:14:22.000Z,101331
2018-02-16T16:16:07.000Z,101329
2018-02-16T16:17:22.000Z,101321
2018-02-16T16:18:22.000Z,101323
2018-02-16T16:20:22.000Z,101328
2018-02-16T16:22:22.000Z,101324
2018-02-16T16:23:22.000Z,101326
2018-02-16T16:25:22.000Z,101328
2018-02-16T16:26:22.000Z,101322
2018-02-16T16:28:22.000Z,101330
2018-02-16T16:30:22.000Z,101334
2018-02-16T16:31:22.000Z,101329
2018-02-16T16:33:22.000Z,101333
2018-02-16T16:35:21.000Z,101338
2018-02-16T16:37:21.000Z,101337
2018-02-16T16:39:21.000Z,101344
2018-02-16T16:40:21.000Z,101343
2018-02-16T16:42:21.000Z,101340
2018-02-16T16:44:21.000Z,101347
2018-02-16T16:46:21.000Z,101348
2018-02-16T16:48:06.000Z,101347
2018-02-16T16:49:21.000Z,101343
2018-02-16T16:51:21.000Z,101351
2018-02-16T16:53:21.000Z,101356
2018-02-16T16:54:21.000Z,101356
2018-02-16T16:56:21.000Z,101353
2018-02-16T16:58:21.000Z,101356
2018-02-16T16:59:21.000Z,101358
2018-02-16T17:00:21.000Z,101359
2018-02-16T17:02:06.000Z,101355
2018-02-16T17:03:21.000Z,101361
2018-02-16T17:04:51.000Z,101356
2018-02-16T17:06:21.000Z,101364
2018-02-16T17:07:21.000Z,101366
2018-02-16T17:09:21.000Z,101366
2018-02-16T17:11:21.000Z,101372
2018-02-16T17:12:21.000Z,101376
2018-02-16T17:13:21.000Z,101370
2018-02-16T17:14:21.000Z,101376
2018-02-16T17:16:21.000Z,101381
2018-02-16T17:18:21.000Z,101383
2018-02-16T17:20:21.000Z,101388
2018-02-16T17:22:21.000Z,101386
2018-02-16T17:23:21.000Z,101384
2018-02-16T17:24:21.000Z,101387
2018-02-16T17:26:21.000Z,101390
2018-02-16T17:28:21.000Z,101387
2018-02-16T17:30:21.000Z,101393
2018-02-16T17:31:21.000Z,101389
2018-02-16T17:32:21.000Z,101389
2018-02-16T17:34:21.000Z,101394
2018-02-16T17:36:21.000Z,101390
2018-02-16T17:37:21.000Z,101392
2018-02-16T17:39:22.000Z,101396
2018-02-16T17:41:22.000Z,101392
2018-02-16T17:43:22.000Z,101391
2018-02-16T17:45:07.000Z,101388
2018-02-16T17:46:22.000Z,101386
2018-02-16T17:47:22.000Z,101389
2018-02-16T17:49:07.000Z,101385
2018-02-16T17:50:22.000Z,101378
2018-02-16T17:52:22.000Z,101378
2018-02-16T17:54:22.000Z,101377
2018-02-16T17:55:22.000Z,101373
2018-02-16T17:57:22.000Z,101371
2018-02-16T17:58:22.000Z,101367
2018-02-16T17:59:22.000Z,101366
2018-02-16T18:01:22.000Z,101367
2018-02-16T18:02:22.000Z,101363
2018-02-16T18:03:22.000Z,101364
2018-02-16T18:05:22.000Z,101364
2018-02-16T18:07:22.000Z,101358
2018-02-16T18:08:22.000Z,101365
2018-02-16T18:09:22.000Z,101365
2018-02-16T18:11:22.000Z,101363
2018-02-16T18:12:22.000Z,101360
2018-02-16T18:13:22.000Z,101357
2018-02-16T18:14:22.000Z,101364
2018-02-16T18:16:22.000Z,101358
2018-02-16T18:17:22.000Z,101365
2018-02-16T18:19:22.000Z,101361
2018-02-16T18:20:22.000Z,101359
2018-02-16T18:21:22.000Z,101359
2018-02-16T18:23:22.000Z,101358
2018-02-16T18:25:22.000Z,101356
2018-02-16T18:26:22.000Z,101356
2018-02-16T18:28:22.000Z,101349
2018-02-16T18:30:22.000Z,101352
2018-02-16T18:32:07.000Z,101354
2018-02-16T18:33:22.000Z,101350
2018-02-16T18:35:22.000Z,101356
2018-02-16T18:37:22.000Z,101350
2018-02-16T18:41:08.000Z,101356
2018-02-16T18:42:09.000Z,101354
2018-02-16T18:44:09.000Z,101358
2018-02-16T18:45:09.000Z,101354
2018-02-16T18:47:09.000Z,101361
2018-02-16T18:48:09.000Z,101357
2018-02-16T18:50:09.000Z,101359
2018-02-16T18:51:09.000Z,101357
2018-02-16T18:53:09.000Z,101353
2018-02-16T18:54:53.000Z,101358
2018-02-16T18:56:09.000Z,101359
2018-02-16T18:58:09.000Z,101362
2018-02-16T19:00:09.000Z,101366
2018-02-16T19:02:09.000Z,101369
2018-02-16T19:04:09.000Z,101372
2018-02-16T19:05:09.000Z,101376
2018-02-16T19:06:38.000Z,101372
2018-02-16T19:08:09.000Z,101374
2018-02-16T19:10:09.000Z,101364
2018-02-16T19:11:09.000Z,101362
2018-02-16T19:12:09.000Z,101361
2018-02-16T19:14:09.000Z,101362
2018-02-16T19:15:09.000Z,101361
2018-02-16T19:17:09.000Z,101356
2018-02-16T19:18:09.000Z,101350
2018-02-16T19:19:38.000Z,101306
2018-02-16T19:21:09.000Z,101366
2018-02-16T19:22:53.000Z,101351
2018-02-16T19:24:09.000Z,101352
2018-02-16T19:26:09.000Z,101353
2018-02-16T19:28:09.000Z,101348
2018-02-16T19:29:38.000Z,101351
2018-02-16T19:31:09.000Z,101346
2018-02-16T19:33:09.000Z,101340
2018-02-16T19:35:09.000Z,101339
2018-02-16T19:37:09.000Z,101343
2018-02-16T19:38:09.000Z,101332
2018-02-16T19:40:09.000Z,101337
2018-02-16T19:42:09.000Z,101342
2018-02-16T19:43:09.000Z,101341
2018-02-16T19:44:09.000Z,101344
2018-02-16T19:46:09.000Z,101350
2018-02-16T19:48:09.000Z,101348
2018-02-16T19:49:09.000Z,101350
2018-02-16T19:51:09.000Z,101358
2018-02-16T19:52:09.000Z,101363
2018-02-16T19:53:09.000Z,101358
2018-02-16T19:55:09.000Z,101364
2018-02-16T19:56:09.000Z,101360
2018-02-16T19:58:09.000Z,101367
2018-02-16T20:00:09.000Z,101370